createdAt,value
2023-04-05T00:05:12.092Z,53.60
2023-04-05T00:15:37.727Z,65.80
2023-04-05T00:26:03.749Z,54.80
2023-04-05T00:36:29.753Z,51.50
2023-04-05T00:46:56.234Z,61.80
2023-04-05T00:57:22.260Z,65.00
2023-04-05T01:07:55.678Z,62.60
2023-04-05T01:18:22.348Z,62.10
2023-04-05T01:29:30.480Z,66.80
2023-04-05T01:39:57.049Z,60.80
2023-04-05T01:50:23.249Z,66.70
2023-04-05T02:00:49.466Z,66.90
2023-04-05T02:11:16.118Z,65.80
2023-04-05T02:21:42.260Z,69.10
2023-04-05T02:32:09.025Z,67.20
2023-04-05T02:42:34.563Z,72.30
2023-04-05T02:53:01.364Z,87.70
2023-04-05T03:03:29.124Z,81.00
2023-04-05T03:13:55.268Z,79.00
2023-04-05T03:24:21.130Z,69.90
2023-04-05T03:34:47.297Z,77.40
2023-04-05T03:45:13.488Z,75.60
2023-04-05T03:55:50.626Z,70.70
2023-04-05T04:06:19.150Z,64.40
2023-04-05T04:16:45.934Z,71.40
2023-04-05T04:27:12.388Z,76.00
2023-04-05T04:37:38.467Z,71.20
2023-04-05T04:48:05.200Z,92.00
2023-04-05T04:58:31.480Z,73.60
2023-04-05T05:08:57.729Z,49.80
2023-04-05T05:19:23.871Z,57.00
2023-04-05T05:29:49.478Z,41.10
2023-04-05T05:40:16.419Z,37.50
2023-04-05T05:50:42.273Z,45.30
2023-04-05T06:01:08.947Z,41.80
2023-04-05T06:11:38.850Z,43.80
2023-04-05T06:22:08.093Z,46.70
2023-04-05T06:32:33.450Z,44.60
2023-04-05T06:42:59.650Z,53.80
2023-04-05T06:53:27.756Z,51.60
2023-04-05T07:03:53.432Z,56.20
2023-04-05T07:14:19.731Z,38.50
2023-04-05T07:24:46.301Z,35.10
2023-04-05T07:35:12.776Z,37.50
2023-04-05T07:45:38.084Z,30.00
2023-04-05T07:56:06.563Z,22.80
2023-04-05T08:06:32.459Z,22.40
2023-04-05T08:16:58.375Z,14.90
2023-04-05T08:27:23.976Z,8.70
2023-04-05T08:37:50.184Z,10.80
2023-04-05T08:48:16.973Z,13.10
2023-04-05T08:58:49.654Z,9.70
2023-04-05T09:09:17.748Z,9.60
2023-04-05T09:19:43.917Z,8.60
2023-04-05T09:30:25.101Z,6.20
2023-04-05T09:40:52.665Z,6.60
2023-04-05T09:51:18.785Z,4.70
2023-04-05T10:01:52.912Z,4.30
2023-04-05T10:12:27.129Z,7.30
2023-04-05T10:23:08.602Z,6.90
2023-04-05T10:33:42.831Z,10.50
2023-04-05T10:44:18.868Z,7.20
2023-04-05T10:54:53.780Z,5.70
2023-04-05T11:05:37.912Z,7.00
2023-04-05T11:16:13.212Z,7.10
2023-04-05T11:26:56.830Z,7.20
2023-04-05T11:37:45.947Z,8.50
2023-04-05T11:48:13.452Z,7.00
2023-04-05T11:58:39.737Z,6.70
2023-04-05T12:09:10.168Z,5.40
2023-04-05T12:19:37.784Z,7.80
2023-04-05T12:30:15.856Z,5.40
2023-04-05T12:40:43.782Z,5.20
2023-04-05T12:51:18.036Z,6.50
2023-04-05T13:01:44.120Z,7.20
2023-04-05T13:12:09.871Z,5.90
2023-04-05T13:22:35.925Z,6.30
2023-04-05T13:33:02.008Z,5.20
2023-04-05T13:43:28.309Z,8.90
2023-04-05T13:53:54.293Z,2.50
2023-04-05T14:04:20.469Z,4.70
2023-04-05T14:14:47.165Z,5.60
2023-04-05T14:25:13.407Z,4.20
2023-04-05T14:35:38.856Z,9.90
2023-04-05T14:46:04.413Z,5.40
2023-04-05T14:56:30.694Z,5.20
2023-04-05T15:06:56.509Z,4.20
2023-04-05T15:17:23.126Z,8.40
2023-04-05T15:27:48.622Z,5.70
2023-04-05T15:38:14.704Z,4.20
2023-04-05T15:48:40.845Z,7.00
2023-04-05T15:59:06.676Z,9.60
2023-04-05T16:09:32.656Z,6.30
2023-04-05T16:19:58.782Z,4.70
2023-04-05T16:30:24.352Z,8.50
2023-04-05T16:40:50.027Z,11.80
2023-04-05T16:51:16.203Z,10.40
2023-04-05T17:13:26.351Z,12.20
2023-04-05T17:23:52.503Z,9.60
2023-04-05T17:34:18.201Z,10.00
2023-04-05T17:44:43.811Z,11.10
2023-04-05T17:55:11.263Z,19.60
2023-04-05T18:05:37.793Z,13.50
2023-04-05T18:16:03.587Z,15.00
2023-04-05T18:26:30.130Z,10.50
2023-04-05T18:36:55.790Z,9.20
2023-04-05T18:47:21.727Z,9.80
2023-04-05T18:57:47.433Z,16.70
2023-04-05T19:08:13.262Z,20.80
2023-04-05T19:18:39.116Z,23.10
2023-04-05T19:29:05.578Z,16.70
2023-04-05T19:39:31.446Z,12.90
2023-04-05T19:49:58.561Z,25.60
2023-04-05T20:00:36.202Z,30.60
2023-04-05T20:11:01.813Z,29.50
2023-04-05T20:21:28.725Z,27.20
2023-04-05T20:31:54.941Z,27.80
2023-04-05T20:42:20.523Z,16.70
2023-04-05T20:52:46.906Z,17.30
2023-04-05T21:03:13.627Z,28.30
2023-04-05T21:13:39.310Z,36.90
2023-04-05T21:24:05.550Z,42.80
2023-04-05T21:34:31.330Z,45.80
2023-04-05T21:44:57.062Z,38.80
2023-04-05T21:55:22.872Z,41.00
2023-04-05T22:05:49.254Z,36.90
2023-04-05T22:16:15.063Z,35.20
2023-04-05T22:26:43.045Z,35.30
2023-04-05T22:37:08.596Z,41.00
2023-04-05T22:47:34.574Z,39.60
2023-04-05T22:58:00.749Z,57.10
2023-04-05T23:08:27.552Z,63.70
2023-04-05T23:18:53.417Z,52.10
2023-04-05T23:29:19.807Z,39.90
2023-04-05T23:39:45.797Z,39.50
2023-04-05T23:50:13.264Z,48.00
